createdAt,value
2022-12-02T00:03:34.152Z,10.20
2022-12-02T00:14:00.843Z,11.80
2022-12-02T00:24:26.407Z,10.20
2022-12-02T00:34:52.092Z,12.60
2022-12-02T00:45:36.460Z,10.30
2022-12-02T00:56:02.021Z,10.70
2022-12-02T01:06:08.177Z,10.40
2022-12-02T01:16:13.812Z,10.10
2022-12-02T01:26:19.449Z,10.30
2022-12-02T01:36:25.211Z,9.20
2022-12-02T01:46:31.029Z,8.20
2022-12-02T01:56:36.719Z,8.30
2022-12-02T02:06:44.997Z,7.60
2022-12-02T02:16:50.968Z,7.40
2022-12-02T02:26:56.725Z,10.00
2022-12-02T02:37:02.712Z,9.50
2022-12-02T02:47:08.510Z,8.40
2022-12-02T02:57:14.297Z,9.50
2022-12-02T03:07:20.602Z,9.30
2022-12-02T03:27:30.845Z,10.10
2022-12-02T03:37:36.568Z,9.50
2022-12-02T03:47:45.550Z,10.80
2022-12-02T03:57:51.350Z,10.70
2022-12-02T04:07:57.149Z,11.70
2022-12-02T04:18:03.196Z,11.30
2022-12-02T04:28:09.031Z,9.50
2022-12-02T04:38:14.909Z,9.20
2022-12-02T04:48:20.529Z,11.30
2022-12-02T04:58:26.142Z,14.70
2022-12-02T05:08:31.809Z,14.40
2022-12-02T05:18:37.601Z,12.10
2022-12-02T05:28:43.276Z,11.10
2022-12-02T05:38:48.858Z,10.40
2022-12-02T05:48:54.496Z,13.30
2022-12-02T05:59:06.627Z,10.40
2022-12-02T06:09:18.375Z,9.90
2022-12-02T06:19:27.781Z,9.90
2022-12-02T06:29:36.154Z,10.30
2022-12-02T06:40:04.717Z,11.30
2022-12-02T06:50:25.443Z,11.40
2022-12-02T07:00:32.896Z,13.90
2022-12-02T07:10:38.553Z,17.10
2022-12-02T07:20:46.762Z,19.00
2022-12-02T07:30:58.832Z,20.70
2022-12-02T07:41:04.564Z,17.60
2022-12-02T07:51:10.330Z,16.90
2022-12-02T08:01:19.387Z,17.20
2022-12-02T08:11:25.732Z,15.30
2022-12-02T08:21:32.674Z,15.40
2022-12-02T08:31:38.606Z,14.80
2022-12-02T08:41:44.660Z,15.20
2022-12-02T08:51:50.598Z,16.80
2022-12-02T09:01:56.321Z,14.20
2022-12-02T09:12:02.277Z,14.00
2022-12-02T09:22:07.904Z,14.20
2022-12-02T09:32:13.735Z,14.20
2022-12-02T09:42:20.125Z,14.70
2022-12-02T09:52:27.444Z,12.20
2022-12-02T10:02:41.066Z,11.90
2022-12-02T10:12:47.148Z,14.50
2022-12-02T10:23:14.752Z,12.90
2022-12-02T10:33:23.919Z,12.20
2022-12-02T10:43:29.521Z,15.00
2022-12-02T10:53:35.405Z,13.30
2022-12-02T11:03:41.698Z,16.70
2022-12-02T11:24:27.867Z,15.80
2022-12-02T11:35:16.934Z,19.10
2022-12-02T11:45:48.121Z,16.80
2022-12-02T11:55:55.098Z,18.20
2022-12-02T12:06:12.178Z,15.80
2022-12-02T12:16:25.382Z,18.10
2022-12-02T12:26:36.128Z,14.80
2022-12-02T12:36:41.698Z,20.10
2022-12-02T12:46:47.293Z,19.00
2022-12-02T12:56:52.920Z,19.90
2022-12-02T13:06:58.621Z,20.10
2022-12-02T13:17:04.327Z,23.30
2022-12-02T13:27:10.093Z,20.20
2022-12-02T13:37:15.701Z,19.20
2022-12-02T13:47:21.385Z,23.00
2022-12-02T13:57:27.193Z,21.30
2022-12-02T14:13:29.106Z,22.00
2022-12-02T14:23:34.871Z,22.10
2022-12-02T14:34:09.579Z,22.80
2022-12-02T14:54:10.643Z,21.40
2022-12-02T15:04:16.370Z,24.70
2022-12-02T15:14:22.430Z,18.90
2022-12-02T15:24:28.262Z,21.60
2022-12-02T15:34:33.949Z,17.40
2022-12-02T15:44:39.656Z,18.50
2022-12-02T15:54:45.560Z,19.90
2022-12-02T16:04:51.376Z,21.20
2022-12-02T16:25:05.201Z,19.00
2022-12-02T16:35:11.431Z,19.00
2022-12-02T16:45:17.152Z,17.20
2022-12-02T16:55:22.752Z,16.80
2022-12-02T17:05:28.410Z,16.50
2022-12-02T17:15:34.069Z,17.90
2022-12-02T17:25:39.724Z,15.30
2022-12-02T17:45:50.168Z,15.00
2022-12-02T18:06:00.080Z,16.10
2022-12-02T18:16:07.790Z,15.10
2022-12-02T18:26:14.597Z,17.30
2022-12-02T18:36:20.172Z,16.70
2022-12-02T18:46:25.826Z,17.50
2022-12-02T18:56:31.605Z,18.60
2022-12-02T19:06:37.267Z,20.70
2022-12-02T19:16:43.023Z,22.30
2022-12-02T19:26:48.947Z,18.70
2022-12-02T19:36:54.641Z,20.10
2022-12-02T19:47:00.273Z,20.20
2022-12-02T19:57:06.089Z,18.90
2022-12-02T20:07:11.723Z,21.40
2022-12-02T20:17:17.347Z,20.30
2022-12-02T20:27:23.129Z,19.90
2022-12-02T20:37:28.842Z,19.70
2022-12-02T20:47:34.621Z,20.60
2022-12-02T20:57:40.286Z,19.10
2022-12-02T21:07:48.840Z,17.70
2022-12-02T21:17:54.592Z,17.00
2022-12-02T21:28:00.572Z,20.00
2022-12-02T21:48:10.355Z,21.60
2022-12-02T21:58:16.107Z,20.10
2022-12-02T22:08:21.701Z,19.30
2022-12-02T22:18:27.524Z,19.80
2022-12-02T22:28:33.190Z,19.50
2022-12-02T22:38:38.875Z,19.20
2022-12-02T22:48:44.692Z,21.10
2022-12-02T22:58:50.363Z,19.40
2022-12-02T23:08:55.978Z,19.40
2022-12-02T23:19:01.811Z,22.90
2022-12-02T23:29:07.503Z,20.80
2022-12-02T23:39:13.055Z,22.40
2022-12-02T23:49:18.700Z,21.10
2022-12-02T23:59:24.290Z,23.30
